Rio San Juan, Dominican Republic
Current Conditions -  °F | °C
As of 6:00 PM on Wednesday 28 Jan 2015 (Local Time) from MDPP Reporting Station
Rain Showers Rain Showers  
Wind Chill: 70°   Ceiling: 800
Heat Index: 70°   Visibility: 0.93mi
Dew Point: 70°   Wind: 12mph
Humidity: 100%   Direction: 300°WNW
Pressure: 29.97"   Gusts: NA
Location:  19.65°N, 70.08°W
Report Text: MDPP 282200Z 30010KT 1500 +SHRA OVC008 21/21 Q1015
Loading
Personal Weather Stations






























Interactive Weather Map New forecast layout! Learn more

10-Day Weather Forecast

Advertisements
Track Severe Weather on mobile